Time;durP1;ratioP1;P1;durP2;ratioP2;P2;SDS_P1;SDS_P2;PMS_P1;PMS_P2;Temp;Humidity;BMP_temperature;BMP_pressure;BME280_temperature;BME280_humidity;BME280_pressure;Samples;Min_cycle;Max_cycle;Signal;HPM_P1;HPM_P2
2021/01/26 00:00:29;;;;;;;6.77;5.80;;;;;;;;;;5052582;28;20506;-75
2021/01/26 00:02:54;;;;;;;9.15;5.82;;;;;;;;;;5034699;28;20423;-76
2021/01/26 00:05:21;;;;;;;8.90;6.33;;;;;;;;;;5052926;28;20559;-77
2021/01/26 00:07:46;;;;;;;6.75;5.55;;;;;;;;;;5052787;28;20411;-75
2021/01/26 00:10:31;;;;;;;8.17;5.90;;;;;;;;;;5034796;28;20590;-75
2021/01/26 00:13:06;;;;;;;8.30;5.90;;;;;;;;;;5052468;28;20909;-75
2021/01/26 00:15:32;;;;;;;10.30;6.18;;;;;;;;;;5034530;28;20184;-76
2021/01/26 00:17:58;;;;;;;9.13;5.83;;;;;;;;;;5052375;28;20290;-75
2021/01/26 00:20:25;;;;;;;7.72;5.65;;;;;;;;;;5052778;28;20485;-75
2021/01/26 00:22:51;;;;;;;8.40;6.15;;;;;;;;;;5052733;28;20730;-75
2021/01/26 00:25:24;;;;;;;10.03;7.20;;;;;;;;;;5052332;28;20248;-76
2021/01/26 00:27:50;;;;;;;6.78;5.47;;;;;;;;;;5052605;28;20415;-76
2021/01/26 00:30:18;;;;;;;6.18;5.57;;;;;;;;;;5052681;28;20202;-75
2021/01/26 00:32:44;;;;;;;8.98;5.95;;;;;;;;;;5052606;28;20176;-74
2021/01/26 00:35:11;;;;;;;7.43;6.65;;;;;;;;;;5052500;28;20264;-75
2021/01/26 00:40:40;;;;;;;9.05;6.35;;;;;;;;;;5052108;28;20167;-75
2021/01/26 00:43:07;;;;;;;9.27;6.10;;;;;;;;;;5052075;28;20566;-74
2021/01/26 00:45:33;;;;;;;9.68;6.60;;;;;;;;;;5052387;28;20272;-75
2021/01/26 00:47:59;;;;;;;7.80;5.35;;;;;;;;;;5052104;28;20230;-76
2021/01/26 00:50:26;;;;;;;8.63;6.27;;;;;;;;;;5052251;28;20168;-75
2021/01/26 00:55:56;;;;;;;9.10;6.45;;;;;;;;;;5052016;28;20175;-75
2021/01/26 00:58:22;;;;;;;8.43;6.40;;;;;;;;;;5052158;28;20216;-76
2021/01/26 01:00:48;;;;;;;8.50;6.15;;;;;;;;;;5052226;28;20884;-77
2021/01/26 01:03:14;;;;;;;8.52;6.50;;;;;;;;;;5055823;28;20176;-75
2021/01/26 01:05:40;;;;;;;10.60;5.93;;;;;;;;;;5055897;28;20529;-75
2021/01/26 01:11:09;;;;;;;6.28;4.60;;;;;;;;;;5055685;28;20488;-76
2021/01/26 01:13:35;;;;;;;5.90;5.30;;;;;;;;;;5055614;28;20184;-75
2021/01/26 01:16:01;;;;;;;6.95;5.50;;;;;;;;;;5055821;28;20473;-76
2021/01/26 01:18:27;;;;;;;5.40;4.50;;;;;;;;;;5055536;28;20200;-75
2021/01/26 01:20:53;;;;;;;7.28;5.25;;;;;;;;;;5055822;28;20175;-75
2021/01/26 01:23:19;;;;;;;7.63;5.30;;;;;;;;;;5055841;28;20562;-76
2021/01/26 01:25:45;;;;;;;6.97;5.20;;;;;;;;;;5055409;28;20477;-74
2021/01/26 01:28:11;;;;;;;7.50;4.97;;;;;;;;;;5055509;28;20422;-74
2021/01/26 01:30:37;;;;;;;9.60;5.80;;;;;;;;;;5055326;28;20411;-75
2021/01/26 01:33:05;;;;;;;9.03;4.80;;;;;;;;;;5055283;28;20826;-76
2021/01/26 01:35:31;;;;;;;6.38;4.90;;;;;;;;;;5037677;28;20450;-76
2021/01/26 01:41:01;;;;;;;6.85;5.25;;;;;;;;;;5055589;28;20245;-76
2021/01/26 01:43:27;;;;;;;8.27;3.55;;;;;;;;;;5055464;28;20268;-75
2021/01/26 01:45:53;;;;;;;7.97;6.10;;;;;;;;;;5055322;28;20228;-76
2021/01/26 01:48:22;;;;;;;6.38;4.90;;;;;;;;;;5055178;28;20450;-76
2021/01/26 01:50:51;;;;;;;6.47;5.40;;;;;;;;;;5055174;28;20197;-75
2021/01/26 01:56:23;;;;;;;7.22;5.00;;;;;;;;;;5055333;28;20629;-76
2021/01/26 01:58:52;;;;;;;7.90;5.68;;;;;;;;;;5054573;28;20215;-77
2021/01/26 02:01:19;;;;;;;6.35;4.50;;;;;;;;;;5054856;28;20172;-76
2021/01/26 02:03:51;;;;;;;6.55;5.13;;;;;;;;;;5054790;28;20249;-75
2021/01/26 02:06:18;;;;;;;7.78;5.90;;;;;;;;;;5054851;28;20615;-76
2021/01/26 02:09:04;;;;;;;7.88;4.90;;;;;;;;;;5054414;28;20205;-76
2021/01/26 02:11:30;;;;;;;4.95;4.45;;;;;;;;;;5037869;28;20200;-75
2021/01/26 02:13:56;;;;;;;6.75;4.95;;;;;;;;;;5054596;28;20278;-75
2021/01/26 02:16:25;;;;;;;6.10;4.60;;;;;;;;;;5054568;28;20193;-75
2021/01/26 02:19:11;;;;;;;6.93;5.07;;;;;;;;;;5054266;28;20307;-76
2021/01/26 02:21:37;;;;;;;5.05;4.20;;;;;;;;;;5053952;28;20197;-75
2021/01/26 02:24:09;;;;;;;7.90;5.27;;;;;;;;;;5054339;28;20200;-75
2021/01/26 02:26:38;;;;;;;7.43;5.88;;;;;;;;;;5054428;28;20412;-75
2021/01/26 02:29:06;;;;;;;7.38;4.97;;;;;;;;;;5054373;28;20225;-77
2021/01/26 02:31:41;;;;;;;5.80;4.93;;;;;;;;;;5054144;28;20171;-75
2021/01/26 02:34:10;;;;;;;7.60;5.30;;;;;;;;;;5054192;28;20172;-75
2021/01/26 02:36:45;;;;;;;7.03;5.38;;;;;;;;;;5054137;28;20171;-75
2021/01/26 02:39:30;;;;;;;7.70;5.75;;;;;;;;;;5053717;28;20206;-75
2021/01/26 02:42:08;;;;;;;7.70;6.03;;;;;;;;;;5054155;28;20581;-75
2021/01/26 02:44:40;;;;;;;9.68;5.25;;;;;;;;;;5053932;28;20165;-76
2021/01/26 02:47:21;;;;;;;11.60;5.53;;;;;;;;;;5053806;28;20174;-75
2021/01/26 02:50:09;;;;;;;7.00;4.72;;;;;;;;;;5053861;28;20180;-75
2021/01/26 02:52:38;;;;;;;9.93;5.13;;;;;;;;;;5053908;28;20254;-74
2021/01/26 02:55:07;;;;;;;7.70;4.80;;;;;;;;;;5053900;28;20551;-74
2021/01/26 02:57:40;;;;;;;7.47;5.43;;;;;;;;;;5053780;28;20177;-76
2021/01/26 03:00:09;;;;;;;8.50;6.45;;;;;;;;;;5053768;28;20181;-75
2021/01/26 03:02:41;;;;;;;6.78;4.68;;;;;;;;;;5053671;28;20210;-74
2021/01/26 03:05:11;;;;;;;7.10;5.15;;;;;;;;;;5053935;28;20176;-74
2021/01/26 03:07:40;;;;;;;6.25;4.93;;;;;;;;;;5053938;28;20203;-75
2021/01/26 03:10:10;;;;;;;7.20;6.07;;;;;;;;;;5053253;28;20693;-75
2021/01/26 03:12:41;;;;;;;8.95;6.10;;;;;;;;;;5053536;28;20673;-74
2021/01/26 03:15:08;;;;;;;9.55;5.88;;;;;;;;;;5053522;28;20266;-74
2021/01/26 03:17:48;;;;;;;7.05;5.53;;;;;;;;;;5053338;28;20171;-75
2021/01/26 03:20:26;;;;;;;12.65;5.53;;;;;;;;;;5053457;28;20621;-76
2021/01/26 03:22:54;;;;;;;8.13;5.70;;;;;;;;;;5053531;28;20573;-76
2021/01/26 03:25:22;;;;;;;7.03;5.57;;;;;;;;;;5052833;28;20178;-76
2021/01/26 03:27:48;;;;;;;7.13;5.20;;;;;;;;;;5053211;28;20633;-76
2021/01/26 03:30:17;;;;;;;8.45;5.15;;;;;;;;;;5053572;28;20183;-77
2021/01/26 03:32:45;;;;;;;6.40;5.18;;;;;;;;;;5053724;28;20175;-76
2021/01/26 03:35:12;;;;;;;8.80;6.03;;;;;;;;;;5035419;28;20174;-76
2021/01/26 03:37:39;;;;;;;9.10;6.72;;;;;;;;;;5051522;28;20175;-77
2021/01/26 03:40:06;;;;;;;6.93;4.68;;;;;;;;;;5052267;28;20187;-77
2021/01/26 03:42:33;;;;;;;5.97;4.80;;;;;;;;;;5052165;28;20654;-76
2021/01/26 03:44:59;;;;;;;6.68;4.32;;;;;;;;;;5052094;28;20249;-76
2021/01/26 03:47:26;;;;;;;11.70;5.60;;;;;;;;;;5052233;28;20661;-76
2021/01/26 03:50:04;;;;;;;9.98;5.43;;;;;;;;;;5051847;28;20421;-76
2021/01/26 03:52:30;;;;;;;6.13;4.18;;;;;;;;;;5052795;28;20641;-76
2021/01/26 03:55:02;;;;;;;8.30;4.67;;;;;;;;;;5052706;28;20240;-77
2021/01/26 03:57:37;;;;;;;7.75;5.65;;;;;;;;;;5052781;28;20421;-77
2021/01/26 04:00:03;;;;;;;7.90;6.05;;;;;;;;;;5052705;28;20206;-77
2021/01/26 04:02:29;;;;;;;12.33;6.73;;;;;;;;;;5052778;28;20162;-77
2021/01/26 04:05:14;;;;;;;12.87;7.10;;;;;;;;;;5052746;28;20454;-76
2021/01/26 04:07:42;;;;;;;6.85;5.07;;;;;;;;;;5052710;28;20403;-76
2021/01/26 04:10:22;;;;;;;8.50;6.15;;;;;;;;;;5052530;28;20234;-76
2021/01/26 04:12:50;;;;;;;10.45;6.30;;;;;;;;;;5052587;28;20630;-76
2021/01/26 04:15:20;;;;;;;12.25;7.03;;;;;;;;;;5053038;28;20170;-76
2021/01/26 04:17:50;;;;;;;9.88;5.60;;;;;;;;;;5052378;28;20208;-77
2021/01/26 04:20:21;;;;;;;10.05;5.85;;;;;;;;;;5052636;28;20213;-77
2021/01/26 04:22:52;;;;;;;9.85;7.28;;;;;;;;;;5052512;28;20175;-77
2021/01/26 04:25:32;;;;;;;9.35;6.40;;;;;;;;;;5052368;28;20171;-77
2021/01/26 04:27:59;;;;;;;10.18;7.10;;;;;;;;;;5052641;28;20270;-77
2021/01/26 04:30:25;;;;;;;8.70;6.13;;;;;;;;;;5052404;28;20170;-77
2021/01/26 04:32:59;;;;;;;8.00;6.03;;;;;;;;;;5052731;28;20198;-76
2021/01/26 04:35:25;;;;;;;7.15;5.75;;;;;;;;;;5052424;28;20171;-76
2021/01/26 04:37:51;;;;;;;9.50;6.13;;;;;;;;;;5055676;28;20303;-76
2021/01/26 04:40:18;;;;;;;7.85;5.40;;;;;;;;;;5056643;28;20203;-77
2021/01/26 04:42:44;;;;;;;9.05;6.32;;;;;;;;;;5056471;28;20225;-77
2021/01/26 04:45:13;;;;;;;7.40;5.93;;;;;;;;;;5056710;28;20180;-77
2021/01/26 04:48:04;;;;;;;10.10;5.93;;;;;;;;;;5056341;28;20263;-78
2021/01/26 04:50:35;;;;;;;8.50;5.55;;;;;;;;;;5056221;28;20324;-78
2021/01/26 04:53:07;;;;;;;6.32;4.93;;;;;;;;;;5056074;28;20321;-78
2021/01/26 04:55:43;;;;;;;6.50;5.10;;;;;;;;;;5056186;28;20499;-77
2021/01/26 04:58:09;;;;;;;9.60;5.43;;;;;;;;;;5056103;28;20735;-77
2021/01/26 05:01:04;;;;;;;7.60;5.63;;;;;;;;;;5055829;28;20168;-76
2021/01/26 05:03:35;;;;;;;7.18;5.25;;;;;;;;;;5035202;28;20438;-76
2021/01/26 05:06:03;;;;;;;6.00;4.65;;;;;;;;;;5055820;28;20176;-76
2021/01/26 05:08:39;;;;;;;6.68;4.38;;;;;;;;;;5055800;28;20171;-77
2021/01/26 05:11:09;;;;;;;8.80;5.05;;;;;;;;;;5055714;28;20567;-76
2021/01/26 05:13:42;;;;;;;5.80;4.82;;;;;;;;;;5055689;28;20172;-77
2021/01/26 05:16:08;;;;;;;6.85;3.50;;;;;;;;;;5055130;28;20552;-76
2021/01/26 05:18:55;;;;;;;4.57;4.10;;;;;;;;;;5037373;28;20305;-78
2021/01/26 05:21:41;;;;;;;5.35;3.72;;;;;;;;;;5055463;28;20731;-77
2021/01/26 05:24:28;;;;;;;6.93;3.78;;;;;;;;;;5055404;28;20582;-77
2021/01/26 05:26:54;;;;;;;6.43;4.10;;;;;;;;;;5055275;28;20265;-77
2021/01/26 05:29:20;;;;;;;6.30;3.72;;;;;;;;;;5055383;28;20201;-77
2021/01/26 05:31:48;;;;;;;6.45;4.38;;;;;;;;;;5055233;28;20222;-77
2021/01/26 05:34:14;;;;;;;6.25;4.50;;;;;;;;;;5055279;28;20226;-76
2021/01/26 05:36:45;;;;;;;5.75;4.70;;;;;;;;;;5055272;28;20169;-76
2021/01/26 05:39:14;;;;;;;7.05;4.70;;;;;;;;;;5054454;28;20203;-76
2021/01/26 05:41:40;;;;;;;5.75;4.07;;;;;;;;;;5055321;28;20195;-77
2021/01/26 05:44:06;;;;;;;5.97;5.28;;;;;;;;;;5055163;28;20164;-78
2021/01/26 05:46:37;;;;;;;5.70;4.65;;;;;;;;;;5054972;28;20168;-78
2021/01/26 05:49:04;;;;;;;4.95;4.05;;;;;;;;;;5054533;28;20169;-77
2021/01/26 05:51:30;;;;;;;9.05;4.68;;;;;;;;;;5054747;28;20256;-76
2021/01/26 05:54:06;;;;;;;6.90;3.95;;;;;;;;;;5054735;28;20188;-76
2021/01/26 05:56:33;;;;;;;6.10;4.15;;;;;;;;;;5054851;28;20168;-76
2021/01/26 05:59:18;;;;;;;6.70;4.45;;;;;;;;;;5054920;28;20558;-76
2021/01/26 06:01:43;;;;;;;7.65;4.13;;;;;;;;;;5054596;28;20277;-76
2021/01/26 06:04:09;;;;;;;6.40;3.90;;;;;;;;;;5054802;28;20199;-77
2021/01/26 06:06:56;;;;;;;4.80;2.67;;;;;;;;;;5054994;28;20407;-77
2021/01/26 06:09:38;;;;;;;4.50;3.65;;;;;;;;;;5054365;28;21003;-76
2021/01/26 06:12:05;;;;;;;6.07;4.43;;;;;;;;;;5054568;28;20179;-75
2021/01/26 06:14:31;;;;;;;7.53;3.65;;;;;;;;;;5054649;28;20654;-78
2021/01/26 06:17:05;;;;;;;5.32;4.07;;;;;;;;;;5054188;28;20530;-76
2021/01/26 06:19:31;;;;;;;5.28;3.28;;;;;;;;;;5036165;28;20324;-83
2021/01/26 06:21:57;;;;;;;4.93;4.10;;;;;;;;;;5036486;28;20175;-77
2021/01/26 06:24:25;;;;;;;5.63;3.63;;;;;;;;;;5054324;28;20187;-76
2021/01/26 06:27:04;;;;;;;4.70;3.75;;;;;;;;;;5054497;28;20530;-77
2021/01/26 06:29:34;;;;;;;6.72;4.25;;;;;;;;;;5054380;28;20175;-76
2021/01/26 06:32:03;;;;;;;5.30;4.45;;;;;;;;;;5054235;28;20163;-77
2021/01/26 06:34:41;;;;;;;6.15;4.13;;;;;;;;;;5054227;28;20248;-78
2021/01/26 06:37:26;;;;;;;4.20;3.60;;;;;;;;;;5054150;28;20167;-77
2021/01/26 06:40:10;;;;;;;6.53;4.47;;;;;;;;;;5036033;28;20308;-78
2021/01/26 06:42:55;;;;;;;6.80;3.85;;;;;;;;;;5054402;28;20535;-76
2021/01/26 06:45:56;;;;;;;4.60;4.03;;;;;;;;;;5054150;28;20572;-78
2021/01/26 06:48:37;;;;;;;3.85;3.50;;;;;;;;;;4937508;29;20661;-78
2021/01/26 06:51:24;;;;;;;4.53;3.67;;;;;;;;;;5042899;28;20609;-78
2021/01/26 06:57:04;;;;;;;4.03;2.95;;;;;;;;;;5053834;28;20672;-77
2021/01/26 07:00:00;;;;;;;4.00;3.42;;;;;;;;;;5053394;28;20207;-78
2021/01/26 07:02:44;;;;;;;5.03;3.10;;;;;;;;;;5053353;28;20642;-77
2021/01/26 07:05:23;;;;;;;3.58;2.83;;;;;;;;;;5053442;28;20291;-77
2021/01/26 07:08:01;;;;;;;5.30;4.07;;;;;;;;;;5053444;28;20168;-78
2021/01/26 07:13:57;;;;;;;4.50;2.72;;;;;;;;;;5053848;28;20701;-77
2021/01/26 07:16:38;;;;;;;4.63;3.15;;;;;;;;;;5048781;28;20241;-77
2021/01/26 07:19:23;;;;;;;5.07;3.00;;;;;;;;;;5053246;28;20544;-78
2021/01/26 07:22:08;;;;;;;5.55;3.15;;;;;;;;;;5053437;28;20456;-77
2021/01/26 07:24:46;;;;;;;4.20;2.85;;;;;;;;;;5053024;28;20176;-80
2021/01/26 07:27:25;;;;;;;2.72;2.47;;;;;;;;;;5052566;28;20172;-78
2021/01/26 07:29:55;;;;;;;4.55;3.20;;;;;;;;;;5052096;28;20160;-78
2021/01/26 07:32:21;;;;;;;3.22;2.47;;;;;;;;;;5050499;28;20507;-78
2021/01/26 07:34:53;;;;;;;5.53;2.80;;;;;;;;;;5052311;28;20251;-76
2021/01/26 07:37:19;;;;;;;2.90;2.60;;;;;;;;;;5052207;28;20419;-77
2021/01/26 07:39:54;;;;;;;3.20;2.80;;;;;;;;;;5051619;28;20566;-75
2021/01/26 07:42:27;;;;;;;4.10;2.55;;;;;;;;;;5051936;28;20402;-78
2021/01/26 07:45:16;;;;;;;8.85;2.63;;;;;;;;;;5052120;28;20524;-80
2021/01/26 07:47:47;;;;;;;3.88;2.70;;;;;;;;;;5051962;28;20251;-77
2021/01/26 07:50:22;;;;;;;3.67;2.78;;;;;;;;;;5051977;28;20260;-79
2021/01/26 07:52:51;;;;;;;2.97;2.42;;;;;;;;;;5033831;28;20531;-79
2021/01/26 07:55:24;;;;;;;5.32;3.38;;;;;;;;;;5051781;28;20250;-80
2021/01/26 07:57:53;;;;;;;6.57;3.10;;;;;;;;;;5051967;28;20199;-78
2021/01/26 08:00:21;;;;;;;5.30;3.10;;;;;;;;;;5052103;28;20164;-77
2021/01/26 08:02:52;;;;;;;6.13;3.83;;;;;;;;;;5051629;28;20500;-78
2021/01/26 08:05:19;;;;;;;7.35;4.30;;;;;;;;;;5051685;28;20165;-76
2021/01/26 08:07:46;;;;;;;4.30;3.40;;;;;;;;;;5051794;28;20176;-77
2021/01/26 08:10:24;;;;;;;4.28;3.55;;;;;;;;;;5033613;28;20228;-77
2021/01/26 08:12:50;;;;;;;5.97;3.50;;;;;;;;;;5051529;28;20175;-77
2021/01/26 08:15:22;;;;;;;5.53;2.40;;;;;;;;;;5051790;28;20500;-76
2021/01/26 08:17:56;;;;;;;3.33;2.90;;;;;;;;;;5051370;28;20713;-77
2021/01/26 08:20:25;;;;;;;5.18;3.00;;;;;;;;;;5051158;28;20176;-76
2021/01/26 08:23:04;;;;;;;4.82;3.63;;;;;;;;;;5051064;28;20164;-76
2021/01/26 08:25:30;;;;;;;4.00;2.90;;;;;;;;;;5051348;28;20168;-78
2021/01/26 08:27:58;;;;;;;4.30;3.30;;;;;;;;;;5051448;28;20172;-77
2021/01/26 08:30:36;;;;;;;4.03;2.72;;;;;;;;;;5033482;28;20437;-78
2021/01/26 08:33:15;;;;;;;3.40;3.10;;;;;;;;;;5051270;28;20258;-75
2021/01/26 08:35:53;;;;;;;5.80;2.85;;;;;;;;;;5051594;28;20492;-75
2021/01/26 08:38:39;;;;;;;3.92;3.53;;;;;;;;;;5051173;28;20196;-77
2021/01/26 08:41:06;;;;;;;5.25;3.13;;;;;;;;;;5035631;28;20199;-77
2021/01/26 08:43:46;;;;;;;6.20;3.42;;;;;;;;;;5052193;28;20176;-78
2021/01/26 08:46:29;;;;;;;7.70;3.67;;;;;;;;;;5052589;28;20616;-77
2021/01/26 08:49:14;;;;;;;5.30;3.45;;;;;;;;;;5051426;28;20218;-77
2021/01/26 08:51:41;;;;;;;3.13;2.70;;;;;;;;;;5052111;28;20168;-76
2021/01/26 08:54:07;;;;;;;5.07;3.42;;;;;;;;;;5052319;28;20172;-77
2021/01/26 08:56:34;;;;;;;7.47;4.10;;;;;;;;;;5052386;28;20509;-76
2021/01/26 08:59:01;;;;;;;3.83;2.70;;;;;;;;;;5052281;28;20547;-77
2021/01/26 09:01:36;;;;;;;5.45;3.78;;;;;;;;;;5052263;28;20164;-77
2021/01/26 09:04:14;;;;;;;5.07;3.10;;;;;;;;;;5051235;28;20503;-79
2021/01/26 09:06:42;;;;;;;5.88;3.25;;;;;;;;;;5051085;28;20160;-76
2021/01/26 09:09:31;;;;;;;3.13;2.63;;;;;;;;;;5050946;28;20231;-79
2021/01/26 09:11:59;;;;;;;4.88;2.67;;;;;;;;;;5051106;28;20275;-77
2021/01/26 09:14:37;;;;;;;5.35;2.10;;;;;;;;;;5050538;28;20180;-78
2021/01/26 09:17:06;;;;;;;4.85;2.72;;;;;;;;;;5050659;28;20576;-77
2021/01/26 09:19:37;;;;;;;4.03;3.00;;;;;;;;;;5050666;28;20561;-77
2021/01/26 09:22:12;;;;;;;2.65;2.45;;;;;;;;;;5051088;28;20165;-77
2021/01/26 09:24:47;;;;;;;3.88;2.85;;;;;;;;;;5054965;28;20183;-79
2021/01/26 09:27:17;;;;;;;3.28;2.97;;;;;;;;;;5054693;28;20508;-77
2021/01/26 09:29:43;;;;;;;3.47;3.08;;;;;;;;;;5054977;28;20175;-82
2021/01/26 09:32:09;;;;;;;6.25;3.10;;;;;;;;;;5053681;28;20175;-77
2021/01/26 09:34:35;;;;;;;2.45;2.25;;;;;;;;;;5053739;28;20175;-77
2021/01/26 09:37:11;;;;;;;10.05;2.50;;;;;;;;;;5054083;28;20187;-76
2021/01/26 09:39:37;;;;;;;3.13;2.83;;;;;;;;;;5053511;28;20208;-76
2021/01/26 09:42:18;;;;;;;3.05;2.25;;;;;;;;;;5054952;28;20161;-76
2021/01/26 09:44:57;;;;;;;3.78;2.22;;;;;;;;;;5055219;28;20199;-76
2021/01/26 09:47:23;;;;;;;2.20;1.98;;;;;;;;;;5055253;28;20251;-77
2021/01/26 09:49:50;;;;;;;4.35;2.85;;;;;;;;;;5055177;28;20504;-76
2021/01/26 09:52:18;;;;;;;3.22;2.15;;;;;;;;;;5055440;28;20169;-76
2021/01/26 09:54:45;;;;;;;3.70;2.67;;;;;;;;;;5037095;28;20643;-80
2021/01/26 09:57:17;;;;;;;4.25;2.22;;;;;;;;;;5055312;28;20160;-78
2021/01/26 09:59:44;;;;;;;4.25;2.72;;;;;;;;;;5055260;28;20693;-77
2021/01/26 10:02:12;;;;;;;3.67;1.70;;;;;;;;;;5055724;28;20522;-78
2021/01/26 10:04:39;;;;;;;4.22;1.80;;;;;;;;;;5055213;28;20177;-77
2021/01/26 10:07:08;;;;;;;3.85;2.50;;;;;;;;;;5055239;28;20173;-75
2021/01/26 10:09:40;;;;;;;3.65;1.83;;;;;;;;;;5037282;28;20258;-78
2021/01/26 10:12:18;;;;;;;6.43;2.20;;;;;;;;;;5054993;28;20562;-77
2021/01/26 10:15:03;;;;;;;2.65;1.70;;;;;;;;;;5055135;28;20626;-77
2021/01/26 10:17:29;;;;;;;2.08;1.83;;;;;;;;;;5055045;28;20164;-78
2021/01/26 10:19:58;;;;;;;2.17;1.90;;;;;;;;;;5054449;28;20201;-75
2021/01/26 10:22:25;;;;;;;2.65;1.60;;;;;;;;;;5054596;28;20650;-74
2021/01/26 10:24:51;;;;;;;2.85;1.73;;;;;;;;;;5054604;28;20247;-78
2021/01/26 10:27:22;;;;;;;2.70;2.08;;;;;;;;;;5054510;28;20164;-75
2021/01/26 10:29:48;;;;;;;2.38;1.65;;;;;;;;;;5054696;28;20157;-75
2021/01/26 10:32:34;;;;;;;4.97;1.58;;;;;;;;;;5054428;28;20184;-77
2021/01/26 10:35:00;;;;;;;1.52;1.38;;;;;;;;;;5053142;28;20215;-75
2021/01/26 10:37:27;;;;;;;2.13;1.65;;;;;;;;;;5054619;28;20704;-77
2021/01/26 10:40:09;;;;;;;2.97;1.45;;;;;;;;;;5053048;28;20303;-78
2021/01/26 10:42:35;;;;;;;4.35;1.73;;;;;;;;;;5054176;28;20226;-77
2021/01/26 10:45:01;;;;;;;1.23;1.13;;;;;;;;;;5054348;28;20242;-76
2021/01/26 10:47:31;;;;;;;1.42;1.33;;;;;;;;;;5054039;28;20160;-78
2021/01/26 10:49:59;;;;;;;3.90;2.05;;;;;;;;;;5052940;28;20163;-76
2021/01/26 10:52:54;;;;;;;2.92;1.83;;;;;;;;;;5053952;28;20176;-76
2021/01/26 10:55:21;;;;;;;2.65;2.05;;;;;;;;;;5015094;28;20192;-76
2021/01/26 10:57:48;;;;;;;4.07;2.00;;;;;;;;;;5053725;28;20176;-76
2021/01/26 11:00:16;;;;;;;2.33;1.67;;;;;;;;;;5053974;28;20177;-73
2021/01/26 11:02:42;;;;;;;4.30;2.40;;;;;;;;;;5054016;28;20174;-75
2021/01/26 11:05:09;;;;;;;3.40;2.15;;;;;;;;;;5053851;28;20168;-80
2021/01/26 11:07:35;;;;;;;2.03;1.92;;;;;;;;;;5053622;28;20239;-82
2021/01/26 11:10:02;;;;;;;2.33;1.70;;;;;;;;;;5053034;28;20221;-75
2021/01/26 11:12:28;;;;;;;3.53;2.03;;;;;;;;;;5053872;28;20168;-76
2021/01/26 11:14:56;;;;;;;4.97;2.10;;;;;;;;;;5053750;28;20249;-77
2021/01/26 11:17:23;;;;;;;5.75;2.30;;;;;;;;;;5053525;28;20951;-75
2021/01/26 11:19:49;;;;;;;1.73;1.63;;;;;;;;;;5053525;28;20216;-79
2021/01/26 11:22:16;;;;;;;6.00;2.00;;;;;;;;;;5053383;28;20173;-75
2021/01/26 11:24:42;;;;;;;7.78;2.50;;;;;;;;;;5053344;28;20408;-76
2021/01/26 11:27:08;;;;;;;1.52;1.42;;;;;;;;;;5053427;28;20259;-75
2021/01/26 11:29:34;;;;;;;3.95;2.83;;;;;;;;;;5052944;28;20635;-75
2021/01/26 11:32:01;;;;;;;1.92;1.80;;;;;;;;;;5053265;28;20547;-75
2021/01/26 11:34:27;;;;;;;3.92;1.95;;;;;;;;;;5053427;28;20172;-79
2021/01/26 11:36:53;;;;;;;3.95;1.85;;;;;;;;;;5053564;28;20168;-78
2021/01/26 11:39:19;;;;;;;2.03;1.40;;;;;;;;;;5053577;28;20704;-76
2021/01/26 11:41:45;;;;;;;2.80;1.80;;;;;;;;;;5051644;28;20376;-78
2021/01/26 11:44:11;;;;;;;5.35;1.80;;;;;;;;;;5050442;28;20180;-78
2021/01/26 11:46:37;;;;;;;2.73;1.93;;;;;;;;;;5049796;28;20215;-76
2021/01/26 11:49:11;;;;;;;3.28;1.70;;;;;;;;;;5049573;28;20411;-77
2021/01/26 11:51:37;;;;;;;3.33;1.90;;;;;;;;;;5049634;28;20175;-77
2021/01/26 11:54:03;;;;;;;5.03;1.40;;;;;;;;;;5032243;28;20200;-77
2021/01/26 11:56:29;;;;;;;1.58;1.45;;;;;;;;;;5050761;28;20465;-79
2021/01/26 11:58:55;;;;;;;1.40;1.30;;;;;;;;;;5051427;28;20212;-82
2021/01/26 12:01:21;;;;;;;1.57;1.47;;;;;;;;;;5033297;28;20419;-74
2021/01/26 12:03:47;;;;;;;1.85;1.63;;;;;;;;;;5051466;28;20415;-77
2021/01/26 12:06:13;;;;;;;2.60;1.53;;;;;;;;;;5051875;28;20642;-80
2021/01/26 12:08:39;;;;;;;2.75;1.58;;;;;;;;;;5051345;28;20955;-77
2021/01/26 12:11:06;;;;;;;2.03;1.17;;;;;;;;;;5050933;28;20229;-76
2021/01/26 12:16:36;;;;;;;3.05;1.73;;;;;;;;;;5049577;28;20512;-78
2021/01/26 12:19:02;;;;;;;4.25;1.90;;;;;;;;;;5048269;28;20654;-77
2021/01/26 12:21:28;;;;;;;3.10;1.20;;;;;;;;;;5050367;28;20218;-78
2021/01/26 12:23:54;;;;;;;4.63;1.70;;;;;;;;;;5049508;28;20715;-78
2021/01/26 12:26:20;;;;;;;3.17;1.33;;;;;;;;;;5049819;28;20419;-76
2021/01/26 12:31:50;;;;;;;2.38;1.50;;;;;;;;;;5050758;28;20281;-77
2021/01/26 12:34:16;;;;;;;2.13;1.38;;;;;;;;;;5048981;28;20162;-78
2021/01/26 12:36:42;;;;;;;2.47;1.20;;;;;;;;;;5050143;28;20176;-77
2021/01/26 12:39:08;;;;;;;2.10;1.23;;;;;;;;;;5049584;28;20209;-77
2021/01/26 12:47:24;;;;;;;0.90;0.90;;;;;;;;;;5051915;28;20656;-75
2021/01/26 12:49:50;;;;;;;2.08;1.70;;;;;;;;;;5051925;28;20162;-76
2021/01/26 12:52:16;;;;;;;2.28;1.60;;;;;;;;;;5051442;28;20166;-77
2021/01/26 12:54:42;;;;;;;5.07;1.53;;;;;;;;;;5051398;28;20171;-77
2021/01/26 12:57:08;;;;;;;2.10;1.90;;;;;;;;;;5051180;28;20437;-79
2021/01/26 12:59:34;;;;;;;4.53;1.70;;;;;;;;;;5054187;28;20222;-76
2021/01/26 13:02:01;;;;;;;4.97;1.35;;;;;;;;;;5054181;28;20724;-80
2021/01/26 13:04:27;;;;;;;1.60;1.05;;;;;;;;;;5053607;28;20177;-80
2021/01/26 13:06:53;;;;;;;4.28;1.98;;;;;;;;;;5053079;28;20167;-79
2021/01/26 13:09:19;;;;;;;4.30;1.77;;;;;;;;;;5053264;28;20231;-81
2021/01/26 13:11:45;;;;;;;3.83;1.10;;;;;;;;;;5033966;28;20490;-76
2021/01/26 13:17:14;;;;;;;1.20;1.05;;;;;;;;;;5052387;28;20175;-78
2021/01/26 13:19:41;;;;;;;2.67;1.73;;;;;;;;;;5052278;28;20560;-79
2021/01/26 13:22:07;;;;;;;2.30;1.40;;;;;;;;;;5052405;28;20246;-77
2021/01/26 13:24:33;;;;;;;1.90;1.80;;;;;;;;;;5054383;28;20211;-80
2021/01/26 13:26:59;;;;;;;2.05;1.40;;;;;;;;;;5055926;28;20203;-80
2021/01/26 13:32:28;;;;;;;2.47;1.65;;;;;;;;;;5053690;28;20243;-79
2021/01/26 13:34:54;;;;;;;3.70;1.60;;;;;;;;;;5053367;28;20186;-76
2021/01/26 13:37:20;;;;;;;5.32;2.08;;;;;;;;;;5054293;28;20889;-75
2021/01/26 13:39:46;;;;;;;3.37;1.53;;;;;;;;;;5053333;28;20210;-76
2021/01/26 13:42:12;;;;;;;2.47;1.85;;;;;;;;;;5052750;28;20418;-77
2021/01/26 13:47:41;;;;;;;2.35;1.77;;;;;;;;;;5054266;28;20423;-76
2021/01/26 13:50:08;;;;;;;2.80;1.53;;;;;;;;;;5054230;28;20166;-78
2021/01/26 13:52:35;;;;;;;3.28;1.70;;;;;;;;;;5053419;28;20409;-79
2021/01/26 13:55:01;;;;;;;2.35;1.52;;;;;;;;;;5053267;28;20172;-76
2021/01/26 14:03:16;;;;;;;8.77;2.20;;;;;;;;;;5053664;28;20208;-76
2021/01/26 14:05:42;;;;;;;2.88;1.77;;;;;;;;;;5053031;28;20171;-76
2021/01/26 14:08:08;;;;;;;7.20;1.50;;;;;;;;;;5034866;28;20270;-76
2021/01/26 14:10:34;;;;;;;3.38;2.58;;;;;;;;;;5052103;28;20903;-76
2021/01/26 14:13:04;;;;;;;2.92;2.08;;;;;;;;;;5052386;28;20261;-79
2021/01/26 14:15:30;;;;;;;6.78;1.77;;;;;;;;;;5052021;28;20203;-76
2021/01/26 14:17:57;;;;;;;3.70;2.00;;;;;;;;;;5052461;28;20194;-76
2021/01/26 14:20:23;;;;;;;3.38;1.67;;;;;;;;;;5052128;28;20625;-74
2021/01/26 14:22:49;;;;;;;3.58;2.13;;;;;;;;;;5051360;28;20228;-76
2021/01/26 14:25:15;;;;;;;2.70;1.70;;;;;;;;;;5051349;28;20166;-75
2021/01/26 14:27:41;;;;;;;3.22;1.77;;;;;;;;;;5051590;28;20852;-76
2021/01/26 14:33:13;;;;;;;2.42;1.77;;;;;;;;;;5051756;28;20191;-75
2021/01/26 14:35:39;;;;;;;2.40;1.65;;;;;;;;;;5053197;28;20176;-75
2021/01/26 14:38:05;;;;;;;3.17;1.63;;;;;;;;;;5052819;28;20206;-77
2021/01/26 14:40:31;;;;;;;4.68;1.73;;;;;;;;;;5051724;28;20858;-76
2021/01/26 14:42:57;;;;;;;3.87;2.03;;;;;;;;;;5051293;28;20191;-78
2021/01/26 14:45:24;;;;;;;3.40;1.70;;;;;;;;;;5051461;28;20427;-78
2021/01/26 14:47:50;;;;;;;2.30;1.88;;;;;;;;;;5052623;28;20404;-81
2021/01/26 14:50:17;;;;;;;3.38;1.55;;;;;;;;;;5051420;28;20177;-78
2021/01/26 14:52:43;;;;;;;2.05;1.23;;;;;;;;;;5051129;28;20179;-75
2021/01/26 14:55:10;;;;;;;2.85;1.40;;;;;;;;;;5050678;28;20175;-80
2021/01/26 14:57:36;;;;;;;2.38;1.70;;;;;;;;;;5050948;28;20176;-76
2021/01/26 15:03:05;;;;;;;1.92;1.42;;;;;;;;;;5050944;28;20172;-75
2021/01/26 15:05:31;;;;;;;1.35;1.25;;;;;;;;;;5051096;28;20165;-75
2021/01/26 15:07:57;;;;;;;4.15;1.35;;;;;;;;;;5052281;28;20247;-80
2021/01/26 15:10:24;;;;;;;1.30;1.20;;;;;;;;;;5052334;28;20299;-81
2021/01/26 15:12:50;;;;;;;1.48;1.20;;;;;;;;;;5052648;28;20458;-77
2021/01/26 15:18:20;;;;;;;3.55;1.35;;;;;;;;;;5051652;28;20636;-77
2021/01/26 15:20:46;;;;;;;2.50;1.47;;;;;;;;;;5051223;28;20165;-79
2021/01/26 15:23:12;;;;;;;1.33;1.23;;;;;;;;;;5051628;28;20972;-75
2021/01/26 15:25:38;;;;;;;1.50;1.15;;;;;;;;;;5051544;28;20451;-81
2021/01/26 15:28:04;;;;;;;1.02;0.90;;;;;;;;;;5051995;28;20522;-75
2021/01/26 15:33:34;;;;;;;2.00;1.13;;;;;;;;;;5049785;28;20179;-78
2021/01/26 15:36:00;;;;;;;1.27;1.17;;;;;;;;;;5049565;28;20198;-82
2021/01/26 15:38:26;;;;;;;1.00;0.82;;;;;;;;;;5051573;28;20274;-75
2021/01/26 15:40:52;;;;;;;2.13;0.98;;;;;;;;;;5051766;28;20168;-79
2021/01/26 15:43:18;;;;;;;2.47;1.30;;;;;;;;;;5051345;28;20230;-75
2021/01/26 15:48:48;;;;;;;2.13;1.35;;;;;;;;;;5050597;28;20171;-76
2021/01/26 15:51:14;;;;;;;4.00;1.07;;;;;;;;;;5051020;28;20258;-76
2021/01/26 15:53:40;;;;;;;2.70;1.37;;;;;;;;;;5051803;28;20411;-75
2021/01/26 15:56:06;;;;;;;0.90;0.90;;;;;;;;;;5051773;28;20407;-77
2021/01/26 15:58:32;;;;;;;3.30;1.50;;;;;;;;;;5051934;28;20371;-75
2021/01/26 16:04:02;;;;;;;3.80;1.95;;;;;;;;;;5051214;28;20202;-83
2021/01/26 16:06:28;;;;;;;3.97;1.55;;;;;;;;;;5051680;28;20165;-76